createdAt,value
2019-06-10T00:00:13.547Z,101684.95
2019-06-10T00:02:41.920Z,101678.31
2019-06-10T00:05:11.628Z,101677.97
2019-06-10T00:07:41.187Z,101679.31
2019-06-10T00:10:12.000Z,101674.88
2019-06-10T00:12:41.961Z,101675.86
2019-06-10T00:15:12.291Z,101679.91
2019-06-10T00:17:53.181Z,101675.51
2019-06-10T00:20:13.534Z,101682.74
2019-06-10T00:22:43.040Z,101677.83
2019-06-10T00:25:12.525Z,101678.80
2019-06-10T00:27:42.216Z,101675.27
2019-06-10T00:30:12.326Z,101673.91
2019-06-10T00:32:41.810Z,101678.06
2019-06-10T00:35:12.306Z,101681.25
2019-06-10T00:37:42.090Z,101683.12
2019-06-10T00:40:14.124Z,101679.07
2019-06-10T00:42:43.255Z,101680.53
2019-06-10T00:45:17.853Z,101672.08
2019-06-10T00:47:44.166Z,101673.05
2019-06-10T00:50:14.808Z,101668.63
2019-06-10T00:52:45.423Z,101668.14
2019-06-10T00:55:15.117Z,101659.69
2019-06-10T00:57:44.584Z,101664.57
2019-06-10T01:00:24.922Z,101660.66
2019-06-10T01:02:46.012Z,101662.50
2019-06-10T01:05:15.493Z,101665.33
2019-06-10T01:07:45.277Z,101666.20
2019-06-10T01:10:15.429Z,101658.20
2019-06-10T01:12:45.038Z,101666.79
2019-06-10T01:15:15.343Z,101675.37
2019-06-10T01:17:44.856Z,101669.14
2019-06-10T01:20:16.052Z,101669.62
2019-06-10T01:22:45.766Z,101680.42
2019-06-10T01:25:15.317Z,101673.77
2019-06-10T01:27:44.782Z,101676.86
2019-06-10T01:30:21.797Z,101675.64
2019-06-10T01:32:45.783Z,101683.22
2019-06-10T01:35:15.880Z,101676.99
2019-06-10T01:37:46.710Z,101686.06
2019-06-10T01:40:17.871Z,101684.70
2019-06-10T01:42:47.515Z,101678.41
2019-06-10T01:45:17.383Z,101689.20
2019-06-10T01:47:46.963Z,101688.34
2019-06-10T01:50:17.686Z,101686.99
2019-06-10T01:52:47.862Z,101692.05
2019-06-10T01:55:18.279Z,101688.34
2019-06-10T01:57:47.839Z,101682.11
2019-06-10T02:00:23.307Z,101686.65
2019-06-10T02:02:52.356Z,101684.44
2019-06-10T02:05:22.921Z,101688.48
2019-06-10T02:07:52.626Z,101686.27
2019-06-10T02:10:23.023Z,101696.58
2019-06-10T02:12:52.801Z,101697.06
2019-06-10T02:15:22.784Z,101687.61
2019-06-10T02:17:52.385Z,101701.97
2019-06-10T02:20:23.845Z,101697.92
2019-06-10T02:22:53.108Z,101699.77
2019-06-10T02:25:23.006Z,101692.14
2019-06-10T02:27:52.663Z,101691.31
2019-06-10T02:30:35.789Z,101693.50
2019-06-10T02:32:53.536Z,101690.45
2019-06-10T02:35:30.476Z,101686.75
2019-06-10T02:37:54.250Z,101693.02
2019-06-10T02:40:31.797Z,101693.02
2019-06-10T02:42:56.927Z,101691.56
2019-06-10T02:45:32.340Z,101686.52
2019-06-10T02:47:57.644Z,101691.84
2019-06-10T02:50:55.583Z,101693.53
2019-06-10T02:53:30.851Z,101690.35
2019-06-10T02:55:56.253Z,101700.66
2019-06-10T02:58:33.280Z,101691.70
2019-06-10T03:00:57.072Z,101694.88
2019-06-10T03:03:37.287Z,101686.30
2019-06-10T03:05:57.871Z,101691.70
2019-06-10T03:08:31.685Z,101698.31
2019-06-10T03:10:58.611Z,101695.99
2019-06-10T03:13:28.223Z,101695.75
2019-06-10T03:16:03.582Z,101695.27
2019-06-10T03:18:33.161Z,101692.67
2019-06-10T03:21:02.830Z,101694.27
2019-06-10T03:23:32.280Z,101694.02
2019-06-10T03:26:04.033Z,101690.70
2019-06-10T03:28:33.906Z,101689.00
2019-06-10T03:31:05.904Z,101693.64
2019-06-10T03:33:41.056Z,101694.75
2019-06-10T03:36:05.837Z,101692.67
2019-06-10T03:38:37.082Z,101700.77
2019-06-10T03:41:06.544Z,101696.44
2019-06-10T03:43:36.028Z,101702.84
2019-06-10T03:46:05.523Z,101694.34
2019-06-10T03:48:35.129Z,101702.55
2019-06-10T03:51:04.604Z,101703.17
2019-06-10T03:53:34.095Z,101704.51
2019-06-10T03:56:03.694Z,101699.75
2019-06-10T03:58:33.247Z,101701.34
2019-06-10T04:01:03.319Z,101702.65
2019-06-10T04:03:33.795Z,101703.64
2019-06-10T04:06:04.023Z,101701.66
2019-06-10T04:08:33.618Z,101705.32
2019-06-10T04:11:03.249Z,101697.34
2019-06-10T04:13:33.813Z,101692.17
2019-06-10T04:16:03.569Z,101696.80
2019-06-10T04:18:33.207Z,101694.71
2019-06-10T04:21:02.739Z,101688.56
2019-06-10T04:23:33.470Z,101695.55
2019-06-10T04:26:03.040Z,101693.42
2019-06-10T04:28:33.745Z,101694.03
2019-06-10T04:31:03.370Z,101699.53
2019-06-10T04:33:33.116Z,101699.42
2019-06-10T04:36:03.141Z,101697.29
2019-06-10T04:38:33.060Z,101698.39
2019-06-10T04:41:03.787Z,101687.31
2019-06-10T04:43:33.298Z,101689.80
2019-06-10T04:46:02.826Z,101687.31
2019-06-10T04:48:32.951Z,101687.92
2019-06-10T04:51:03.025Z,101689.02
2019-06-10T04:53:33.205Z,101692.30
2019-06-10T04:56:03.301Z,101696.23
2019-06-10T04:58:33.449Z,101693.23
2019-06-10T05:01:03.431Z,101688.06
2019-06-10T05:03:33.273Z,101685.58
2019-06-10T05:06:03.492Z,101686.67
2019-06-10T05:08:33.936Z,101695.39
2019-06-10T05:11:03.935Z,101702.39
2019-06-10T05:13:33.928Z,101694.64
2019-06-10T05:16:03.953Z,101692.50
2019-06-10T05:18:33.567Z,101693.74
2019-06-10T05:21:04.234Z,101693.82
2019-06-10T05:23:33.758Z,101701.30
2019-06-10T05:26:03.211Z,101699.34
2019-06-10T05:28:34.130Z,101694.16
2019-06-10T05:31:03.961Z,101684.05
2019-06-10T05:33:33.726Z,101685.97
2019-06-10T05:36:03.319Z,101683.63
2019-06-10T05:38:35.049Z,101691.48
2019-06-10T05:41:04.099Z,101696.27
2019-06-10T05:43:34.659Z,101693.33
2019-06-10T05:46:04.438Z,101695.39
2019-06-10T05:48:35.139Z,101692.05
2019-06-10T05:51:06.854Z,101696.33
2019-06-10T05:53:35.831Z,101691.17
2019-06-10T05:56:05.356Z,101691.73
2019-06-10T05:58:35.991Z,101696.51
2019-06-10T06:01:05.729Z,101691.84
2019-06-10T06:03:37.043Z,101700.19
2019-06-10T06:06:06.473Z,101693.75
2019-06-10T06:08:35.933Z,101698.91
2019-06-10T06:11:05.523Z,101698.63
2019-06-10T06:13:36.098Z,101702.55
2019-06-10T06:16:05.828Z,101695.16
2019-06-10T06:18:36.482Z,101701.30
2019-06-10T06:21:22.438Z,101696.09
2019-06-10T06:23:39.016Z,101704.94
2019-06-10T06:26:08.513Z,101706.02
2019-06-10T06:28:38.298Z,101705.86
2019-06-10T06:31:07.985Z,101710.15
2019-06-10T06:33:39.706Z,101713.08
2019-06-10T06:36:08.823Z,101711.61
2019-06-10T06:38:38.505Z,101713.19
2019-06-10T06:41:07.966Z,101703.55
2019-06-10T06:43:42.007Z,101707.00
2019-06-10T06:46:08.760Z,101705.00
2019-06-10T06:48:40.319Z,101701.64
2019-06-10T06:51:09.479Z,101702.02
2019-06-10T06:53:47.366Z,101710.73
2019-06-10T06:56:12.407Z,101709.59
2019-06-10T06:58:43.216Z,101715.73
2019-06-10T07:01:14.626Z,101715.12
2019-06-10T07:03:45.069Z,101715.34
2019-06-10T07:06:16.026Z,101717.89
2019-06-10T07:09:00.357Z,101723.04
2019-06-10T07:11:22.390Z,101721.53
2019-06-10T07:13:53.560Z,101730.89
2019-06-10T07:16:23.226Z,101718.42
2019-06-10T07:18:53.981Z,101718.76
2019-06-10T07:21:23.712Z,101718.48
2019-06-10T07:23:53.282Z,101719.72
2019-06-10T07:26:22.893Z,101716.48
2019-06-10T07:28:53.791Z,101713.65
2019-06-10T07:31:27.679Z,101713.86
2019-06-10T07:33:54.880Z,101707.42
2019-06-10T07:36:24.463Z,101709.52
2019-06-10T07:38:54.217Z,101713.44
2019-06-10T07:41:23.799Z,101708.88
2019-06-10T07:43:53.595Z,101706.16
2019-06-10T07:46:23.293Z,101714.51
2019-06-10T07:48:56.487Z,101709.09
2019-06-10T07:51:24.078Z,101710.81
2019-06-10T07:53:53.594Z,101711.15
2019-06-10T07:56:23.574Z,101717.44
2019-06-10T07:58:53.243Z,101714.23
2019-06-10T08:01:23.268Z,101716.45
2019-06-10T08:03:53.050Z,101712.38
2019-06-10T08:06:23.073Z,101721.02
2019-06-10T08:08:53.385Z,101717.28
2019-06-10T08:11:23.173Z,101719.00
2019-06-10T08:13:53.961Z,101715.43
2019-06-10T08:16:23.893Z,101714.08
2019-06-10T08:19:20.003Z,101719.50
2019-06-10T08:21:24.703Z,101715.80
2019-06-10T08:23:55.051Z,101713.73
2019-06-10T08:26:24.539Z,101722.70
2019-06-10T08:28:54.063Z,101719.16
2019-06-10T08:31:23.613Z,101724.22
2019-06-10T08:33:53.706Z,101716.08
2019-06-10T08:36:23.297Z,101722.36
2019-06-10T08:38:53.092Z,101716.08
2019-06-10T08:41:23.216Z,101712.88
2019-06-10T08:43:53.145Z,101715.92
2019-06-10T08:46:22.836Z,101704.58
2019-06-10T08:48:52.709Z,101712.72
2019-06-10T08:51:23.718Z,101714.94
2019-06-10T08:53:53.471Z,101708.31
2019-06-10T08:56:22.887Z,101707.30
2019-06-10T08:58:54.023Z,101704.58
2019-06-10T09:01:23.813Z,101701.02
2019-06-10T09:03:53.852Z,101722.20
2019-06-10T09:06:23.467Z,101710.50
2019-06-10T09:08:54.553Z,101717.80
2019-06-10T09:11:24.278Z,101721.34
2019-06-10T09:13:53.728Z,101719.99
2019-06-10T09:16:23.266Z,101716.94
2019-06-10T09:18:55.284Z,101718.30
2019-06-10T09:21:23.958Z,101712.88
2019-06-10T09:23:59.771Z,101715.09
2019-06-10T09:26:24.740Z,101722.48
2019-06-10T09:28:56.620Z,101722.00
2019-06-10T09:31:25.473Z,101720.64
2019-06-10T09:33:57.002Z,101723.51
2019-06-10T09:36:26.383Z,101720.30
2019-06-10T09:38:55.957Z,101730.78
2019-06-10T09:41:36.317Z,101721.78
2019-06-10T09:43:57.249Z,101719.93
2019-06-10T09:46:29.016Z,101716.85
2019-06-10T09:48:59.163Z,101711.95
2019-06-10T09:51:28.714Z,101716.52
2019-06-10T09:54:03.151Z,101706.66
2019-06-10T09:56:29.416Z,101710.34
2019-06-10T09:58:58.905Z,101702.22
2019-06-10T10:01:32.520Z,101710.02
2019-06-10T10:04:01.567Z,101710.50
2019-06-10T10:06:32.692Z,101702.53
2019-06-10T10:09:04.161Z,101709.30
2019-06-10T10:11:33.707Z,101712.51
2019-06-10T10:14:06.299Z,101714.84
2019-06-10T10:16:34.610Z,101712.30
2019-06-10T10:19:05.313Z,101716.36
2019-06-10T10:21:35.056Z,101711.43
2019-06-10T10:24:10.488Z,101709.21
2019-06-10T10:26:35.833Z,101698.03
2019-06-10T10:29:06.578Z,101700.86
2019-06-10T10:31:36.077Z,101701.36
2019-06-10T10:34:05.616Z,101698.30
2019-06-10T10:36:35.076Z,101704.22
2019-06-10T10:39:06.322Z,101709.77
2019-06-10T10:41:35.765Z,101701.63
2019-06-10T10:44:05.685Z,101708.07
2019-06-10T10:46:35.240Z,101705.85
2019-06-10T10:49:04.746Z,101704.66
2019-06-10T10:51:34.183Z,101695.66
2019-06-10T10:54:21.242Z,101693.94
2019-06-10T10:56:34.881Z,101697.50
2019-06-10T10:59:04.468Z,101692.73
2019-06-10T11:01:34.199Z,101698.64
2019-06-10T11:04:04.528Z,101702.00
2019-06-10T11:06:34.216Z,101699.62
2019-06-10T11:09:03.960Z,101681.30
2019-06-10T11:11:33.721Z,101682.66
2019-06-10T11:14:04.037Z,101690.08
2019-06-10T11:16:33.565Z,101697.72
2019-06-10T11:19:03.054Z,101683.30
2019-06-10T11:21:33.025Z,101697.50
2019-06-10T11:24:04.770Z,101697.01
2019-06-10T11:26:33.955Z,101692.58
2019-06-10T11:29:03.548Z,101689.86
2019-06-10T11:31:33.091Z,101679.14
2019-06-10T11:34:03.184Z,101692.70
2019-06-10T11:36:32.849Z,101682.88
2019-06-10T11:39:02.914Z,101688.30
2019-06-10T11:41:32.654Z,101692.36
2019-06-10T11:44:02.154Z,101685.20
2019-06-10T11:46:32.580Z,101683.52
2019-06-10T11:49:03.990Z,101680.44
2019-06-10T11:51:33.583Z,101679.45
2019-06-10T11:54:03.561Z,101683.14
2019-06-10T11:56:33.746Z,101681.79
2019-06-10T11:59:09.220Z,101692.26
2019-06-10T12:01:34.589Z,101680.92
2019-06-10T12:04:04.684Z,101678.71
2019-06-10T12:06:34.357Z,101670.58
2019-06-10T12:09:06.994Z,101672.95
2019-06-10T12:11:36.501Z,101679.73
2019-06-10T12:14:07.327Z,101676.52
2019-06-10T12:19:08.474Z,101674.80
2019-06-10T12:21:38.106Z,101680.67
2019-06-10T12:24:07.656Z,101671.69
2019-06-10T12:26:37.657Z,101672.55
2019-06-10T12:29:07.234Z,101676.27
2019-06-10T12:31:36.770Z,101673.05
2019-06-10T12:34:06.340Z,101676.27
2019-06-10T12:36:35.890Z,101670.33
2019-06-10T12:39:10.760Z,101678.46
2019-06-10T12:41:42.707Z,101657.31
2019-06-10T12:44:12.364Z,101666.79
2019-06-10T12:46:43.381Z,101662.20
2019-06-10T12:49:14.214Z,101663.22
2019-06-10T12:51:44.185Z,101655.09
2019-06-10T12:54:13.737Z,101660.02
2019-06-10T12:56:43.373Z,101663.22
2019-06-10T12:59:13.734Z,101656.08
2019-06-10T13:01:44.712Z,101635.62
2019-06-10T13:04:15.180Z,101652.88
2019-06-10T13:06:46.772Z,101649.67
2019-06-10T13:09:17.135Z,101643.87
2019-06-10T13:11:46.721Z,101642.52
2019-06-10T13:14:18.397Z,101641.66
2019-06-10T13:16:47.811Z,101653.36
2019-06-10T13:19:17.347Z,101641.66
2019-06-10T13:21:46.866Z,101643.02
2019-06-10T13:24:16.357Z,101638.13
2019-06-10T13:26:45.885Z,101645.73
2019-06-10T13:29:17.660Z,101640.84
2019-06-10T13:31:46.532Z,101641.17
2019-06-10T13:34:16.105Z,101637.59
2019-06-10T13:36:45.543Z,101636.77
2019-06-10T13:39:15.974Z,101634.55
2019-06-10T13:41:45.462Z,101641.66
2019-06-10T13:44:16.626Z,101628.27
2019-06-10T13:46:46.136Z,101638.13
2019-06-10T13:49:15.685Z,101627.78
2019-06-10T13:51:45.169Z,101635.91
2019-06-10T13:54:14.612Z,101627.78
2019-06-10T13:56:47.562Z,101626.91
2019-06-10T13:59:15.476Z,101620.14
2019-06-10T14:01:45.219Z,101615.59
2019-06-10T14:04:21.517Z,101618.62
2019-06-10T14:06:50.360Z,101613.73
2019-06-10T14:09:17.306Z,101611.86
2019-06-10T14:11:46.796Z,101610.16
2019-06-10T14:14:18.151Z,101616.45
2019-06-10T14:16:47.590Z,101620.52
2019-06-10T14:19:17.130Z,101624.05
2019-06-10T14:21:46.601Z,101614.08
2019-06-10T14:24:16.448Z,101611.86
2019-06-10T14:26:45.981Z,101618.62
2019-06-10T14:29:16.296Z,101617.80
2019-06-10T14:31:47.871Z,101613.73
2019-06-10T14:34:18.763Z,101615.92
2019-06-10T14:36:48.520Z,101619.65
2019-06-10T14:39:18.097Z,101620.63
2019-06-10T14:41:47.622Z,101614.02
2019-06-10T14:44:17.961Z,101621.13
2019-06-10T14:46:47.867Z,101614.88
2019-06-10T14:49:17.369Z,101615.86
2019-06-10T14:51:46.861Z,101610.44
2019-06-10T14:54:18.309Z,101615.00
2019-06-10T14:56:53.690Z,101613.16
2019-06-10T14:59:18.764Z,101609.20
2019-06-10T15:01:48.456Z,101619.22
2019-06-10T15:04:19.517Z,101616.51
2019-06-10T15:06:49.080Z,101608.02
2019-06-10T15:09:19.763Z,101614.78
2019-06-10T15:11:53.919Z,101600.38
2019-06-10T15:14:23.504Z,101608.50
2019-06-10T15:16:53.561Z,101615.27
2019-06-10T15:19:28.737Z,101612.23
2019-06-10T15:21:54.416Z,101612.34
2019-06-10T15:24:24.017Z,101605.58
2019-06-10T15:27:08.957Z,101606.23
2019-06-10T15:29:24.774Z,101606.23
2019-06-10T15:32:08.996Z,101600.81
2019-06-10T15:34:25.659Z,101605.86
2019-06-10T15:36:55.170Z,101609.09
2019-06-10T15:39:24.676Z,101610.56
2019-06-10T15:41:55.130Z,101604.28
2019-06-10T15:44:47.477Z,101612.41
2019-06-10T15:46:58.187Z,101605.14
2019-06-10T15:49:28.073Z,101600.74
2019-06-10T15:51:57.661Z,101609.85
2019-06-10T15:54:27.152Z,101608.01
2019-06-10T15:56:56.850Z,101608.50
2019-06-10T15:59:26.359Z,101603.58
2019-06-10T16:01:55.949Z,101613.20
2019-06-10T16:04:29.498Z,101618.13
2019-06-10T16:06:56.926Z,101625.40
2019-06-10T16:09:26.412Z,101625.73
2019-06-10T16:11:55.970Z,101629.46
2019-06-10T16:14:25.555Z,101629.95
2019-06-10T16:16:55.098Z,101637.22
2019-06-10T16:19:24.649Z,101638.20
2019-06-10T16:21:54.206Z,101640.41
2019-06-10T16:24:27.574Z,101636.84
2019-06-10T16:26:57.542Z,101635.48
2019-06-10T16:29:27.167Z,101641.28
2019-06-10T16:31:56.633Z,101642.63
2019-06-10T16:34:28.793Z,101637.22
2019-06-10T16:36:57.734Z,101635.86
2019-06-10T16:39:27.260Z,101633.16
2019-06-10T16:41:56.900Z,101633.53
2019-06-10T16:44:28.319Z,101638.08
2019-06-10T16:46:58.104Z,101638.57
2019-06-10T16:49:27.625Z,101632.17
2019-06-10T16:51:57.113Z,101632.17
2019-06-10T16:54:27.148Z,101630.45
2019-06-10T16:56:56.722Z,101625.89
2019-06-10T16:59:27.519Z,101626.38
2019-06-10T17:01:57.206Z,101630.45
2019-06-10T17:04:27.729Z,101632.29
2019-06-10T17:06:57.479Z,101637.37
2019-06-10T17:09:27.817Z,101636.50
2019-06-10T17:11:58.340Z,101635.27
2019-06-10T17:14:27.901Z,101642.56
2019-06-10T17:16:57.473Z,101646.26
2019-06-10T17:19:28.642Z,101649.95
2019-06-10T17:21:58.150Z,101645.55
2019-06-10T17:24:29.395Z,101641.61
2019-06-10T17:26:58.933Z,101644.84
2019-06-10T17:29:29.283Z,101641.76
2019-06-10T17:32:02.610Z,101634.77
2019-06-10T17:34:33.616Z,101641.69
2019-06-10T17:37:03.206Z,101630.98
2019-06-10T17:39:34.507Z,101630.61
2019-06-10T17:42:04.035Z,101641.44
2019-06-10T17:44:33.616Z,101634.45
2019-06-10T17:47:03.144Z,101640.02
2019-06-10T17:49:34.654Z,101636.45
2019-06-10T17:52:03.985Z,101641.15
2019-06-10T17:54:33.547Z,101641.30
2019-06-10T17:57:03.145Z,101648.91
2019-06-10T17:59:34.642Z,101636.87
2019-06-10T18:02:03.986Z,101640.70
2019-06-10T18:04:33.902Z,101638.98
2019-06-10T18:07:03.436Z,101643.53
2019-06-10T18:09:36.641Z,101640.34
2019-06-10T18:12:04.271Z,101637.78
2019-06-10T18:14:35.866Z,101632.48
2019-06-10T18:17:05.161Z,101634.36
2019-06-10T18:19:37.350Z,101640.75
2019-06-10T18:22:06.154Z,101643.09
2019-06-10T18:24:35.709Z,101643.09
2019-06-10T18:27:05.188Z,101641.39
2019-06-10T18:29:36.913Z,101647.30
2019-06-10T18:32:06.107Z,101645.58
2019-06-10T18:34:37.883Z,101648.28
2019-06-10T18:37:06.927Z,101652.95
2019-06-10T18:39:36.550Z,101656.52
2019-06-10T18:42:06.118Z,101648.89
2019-06-10T18:44:37.423Z,101642.27
2019-06-10T18:47:07.028Z,101635.62
2019-06-10T18:49:37.544Z,101640.55
2019-06-10T18:52:07.351Z,101640.70
2019-06-10T18:54:37.385Z,101640.70
2019-06-10T18:57:06.984Z,101643.03
2019-06-10T18:59:37.919Z,101644.02
2019-06-10T19:02:08.030Z,101651.30
2019-06-10T19:04:38.773Z,101646.00
2019-06-10T19:07:08.981Z,101654.98
2019-06-10T19:09:40.541Z,101661.53
2019-06-10T19:12:09.795Z,101663.38
2019-06-10T19:14:39.867Z,101663.52
2019-06-10T19:17:09.465Z,101663.15
2019-06-10T19:19:40.988Z,101664.99
2019-06-10T19:22:13.075Z,101666.50
2019-06-10T19:24:44.575Z,101668.83
2019-06-10T19:27:13.150Z,101671.19
2019-06-10T19:29:50.086Z,101679.80
2019-06-10T19:32:13.856Z,101676.72
2019-06-10T19:34:48.192Z,101675.52
2019-06-10T19:37:14.729Z,101673.78
2019-06-10T19:39:50.605Z,101672.44
2019-06-10T19:42:15.435Z,101664.95
2019-06-10T19:44:46.025Z,101670.52
2019-06-10T19:47:15.629Z,101680.48
2019-06-10T19:49:45.288Z,101677.88
2019-06-10T19:52:14.823Z,101682.09
2019-06-10T19:54:45.526Z,101681.37
2019-06-10T19:57:15.274Z,101683.70
2019-06-10T20:00:03.255Z,101686.07
2019-06-10T20:02:16.119Z,101687.53
2019-06-10T20:04:45.761Z,101690.87
2019-06-10T20:07:15.266Z,101689.16
2019-06-10T20:09:46.281Z,101696.92
2019-06-10T20:12:15.885Z,101693.36
2019-06-10T20:14:46.724Z,101698.39
2019-06-10T20:17:16.740Z,101699.89
2019-06-10T20:19:46.243Z,101705.41
2019-06-10T20:22:15.841Z,101707.78
2019-06-10T20:24:46.793Z,101704.70
2019-06-10T20:27:16.549Z,101702.14
2019-06-10T20:29:46.106Z,101703.60
2019-06-10T20:32:15.646Z,101699.55
2019-06-10T20:34:45.362Z,101701.05
2019-06-10T20:37:14.964Z,101699.45
2019-06-10T20:39:45.943Z,101697.73
2019-06-10T20:42:15.780Z,101701.45
2019-06-10T20:44:46.282Z,101709.67
2019-06-10T20:47:16.681Z,101712.87
2019-06-10T20:49:49.509Z,101721.13
2019-06-10T20:52:17.716Z,101711.80
2019-06-10T20:54:48.737Z,101713.27
2019-06-10T20:57:18.656Z,101720.52
2019-06-10T20:59:49.847Z,101725.66
2019-06-10T21:02:19.450Z,101726.19
2019-06-10T21:04:50.056Z,101733.92
2019-06-10T21:07:23.249Z,101735.91
2019-06-10T21:09:54.570Z,101740.94
2019-06-10T21:12:24.110Z,101737.86
2019-06-10T21:14:53.591Z,101732.97
2019-06-10T21:17:23.199Z,101720.91
2019-06-10T21:19:53.777Z,101721.92
2019-06-10T21:22:25.640Z,101727.92
2019-06-10T21:24:55.263Z,101743.31
2019-06-10T21:27:24.758Z,101733.85
2019-06-10T21:29:54.903Z,101737.05
2019-06-10T21:32:24.518Z,101738.88
2019-06-10T21:34:54.100Z,101741.59
2019-06-10T21:37:23.571Z,101740.72
2019-06-10T21:39:55.475Z,101743.42
2019-06-10T21:42:24.383Z,101740.72
2019-06-10T21:44:54.059Z,101737.67
2019-06-10T21:47:23.626Z,101740.72
2019-06-10T21:49:54.899Z,101740.38
2019-06-10T21:52:24.505Z,101744.55
2019-06-10T21:54:53.964Z,101746.38
2019-06-10T21:57:23.578Z,101746.38
2019-06-10T21:59:54.978Z,101750.09
2019-06-10T22:02:24.268Z,101745.66
2019-06-10T22:04:55.516Z,101741.23
2019-06-10T22:07:25.155Z,101746.63
2019-06-10T22:09:56.196Z,101749.97
2019-06-10T22:12:25.916Z,101755.03
2019-06-10T22:14:55.464Z,101753.30
2019-06-10T22:17:24.956Z,101751.23
2019-06-10T22:19:56.330Z,101750.36
2019-06-10T22:22:25.802Z,101749.15
2019-06-10T22:24:56.507Z,101743.37
2019-06-10T22:27:26.253Z,101743.52
2019-06-10T22:29:57.156Z,101746.70
2019-06-10T22:32:26.765Z,101749.41
2019-06-10T22:34:57.130Z,101752.22
2019-06-10T22:37:26.863Z,101758.63
2019-06-10T22:39:57.902Z,101771.77
2019-06-10T22:42:27.647Z,101757.52
2019-06-10T22:44:58.057Z,101768.83
2019-06-10T22:47:27.796Z,101764.05
2019-06-10T22:49:58.438Z,101767.23
2019-06-10T22:52:28.503Z,101765.50
2019-06-10T22:54:58.632Z,101762.45
2019-06-10T22:57:28.342Z,101768.84
2019-06-10T22:59:59.399Z,101761.73
2019-06-10T23:02:29.177Z,101759.14
2019-06-10T23:05:01.182Z,101754.73
2019-06-10T23:07:30.159Z,101750.30
2019-06-10T23:09:59.843Z,101741.81
2019-06-10T23:12:29.339Z,101745.53
2019-06-10T23:14:59.352Z,101754.61
2019-06-10T23:17:29.014Z,101744.28
2019-06-10T23:19:59.781Z,101737.18
2019-06-10T23:22:29.360Z,101746.75
2019-06-10T23:25:00.497Z,101744.53
2019-06-10T23:27:30.160Z,101733.00
2019-06-10T23:30:00.853Z,101735.36
2019-06-10T23:32:32.796Z,101730.92
2019-06-10T23:35:02.203Z,101736.47
2019-06-10T23:37:32.302Z,101735.12
2019-06-10T23:40:04.250Z,101743.22
2019-06-10T23:42:33.222Z,101745.69
2019-06-10T23:45:04.990Z,101755.63
2019-06-10T23:47:34.166Z,101755.25
2019-06-10T23:50:04.447Z,101752.66
2019-06-10T23:52:34.123Z,101758.05
2019-06-10T23:55:04.580Z,101758.16
2019-06-10T23:57:34.280Z,101765.92
